sensor_id;sensor_type;location;lat;lon;timestamp;pressure;altitude;pressure_sealevel;temperature;humidity
31088;BME280;17745;55.914;37.554;2023-04-22T00:00:23;98678.81;;;10.94;37.96
31088;BME280;17745;55.914;37.554;2023-04-22T00:02:55;98670.38;;;10.82;38.19
31088;BME280;17745;55.914;37.554;2023-04-22T00:05:23;98693.66;;;10.80;38.50
31088;BME280;17745;55.914;37.554;2023-04-22T00:07:56;98684.13;;;10.73;38.69
31088;BME280;17745;55.914;37.554;2023-04-22T00:10:29;98691.53;;;10.71;38.79
31088;BME280;17745;55.914;37.554;2023-04-22T00:12:59;98693.38;;;10.71;38.74
31088;BME280;17745;55.914;37.554;2023-04-22T00:15:33;98690.50;;;10.67;38.89
31088;BME280;17745;55.914;37.554;2023-04-22T00:18:02;98687.56;;;10.58;39.14
31088;BME280;17745;55.914;37.554;2023-04-22T00:20:35;98699.22;;;10.63;38.97
31088;BME280;17745;55.914;37.554;2023-04-22T00:23:05;98696.03;;;10.61;39.03
31088;BME280;17745;55.914;37.554;2023-04-22T00:25:41;98692.59;;;10.55;39.17
31088;BME280;17745;55.914;37.554;2023-04-22T00:28:13;98696.31;;;10.54;39.17
31088;BME280;17745;55.914;37.554;2023-04-22T00:31:04;98696.56;;;10.47;39.30
31088;BME280;17745;55.914;37.554;2023-04-22T00:33:48;98697.09;;;10.44;39.29
31088;BME280;17745;55.914;37.554;2023-04-22T00:36:19;98691.78;;;10.34;39.55
31088;BME280;17745;55.914;37.554;2023-04-22T00:38:49;98695.19;;;10.29;39.75
31088;BME280;17745;55.914;37.554;2023-04-22T00:41:19;98692.28;;;10.25;39.63
31088;BME280;17745;55.914;37.554;2023-04-22T00:43:50;98687.78;;;10.26;39.85
31088;BME280;17745;55.914;37.554;2023-04-22T00:46:36;98692.56;;;10.24;39.90
31088;BME280;17745;55.914;37.554;2023-04-22T00:49:06;98693.88;;;10.21;40.03
31088;BME280;17745;55.914;37.554;2023-04-22T00:51:35;98693.34;;;10.19;40.08
31088;BME280;17745;55.914;37.554;2023-04-22T00:54:06;98684.88;;;10.17;40.15
31088;BME280;17745;55.914;37.554;2023-04-22T00:56:37;98684.59;;;10.19;40.05
31088;BME280;17745;55.914;37.554;2023-04-22T00:59:08;98685.13;;;10.15;40.20
31088;BME280;17745;55.914;37.554;2023-04-22T01:01:38;98687.75;;;10.10;40.33
31088;BME280;17745;55.914;37.554;2023-04-22T01:04:07;98692.25;;;10.10;40.29
31088;BME280;17745;55.914;37.554;2023-04-22T01:06:39;98684.06;;;10.06;40.44
31088;BME280;17745;55.914;37.554;2023-04-22T01:09:14;98687.75;;;10.00;40.68
31088;BME280;17745;55.914;37.554;2023-04-22T01:11:46;98692.25;;;9.99;40.75
31088;BME280;17745;55.914;37.554;2023-04-22T01:14:20;98679.53;;;9.96;40.79
31088;BME280;17745;55.914;37.554;2023-04-22T01:16:50;98680.06;;;9.93;40.93
31088;BME280;17745;55.914;37.554;2023-04-22T01:19:20;98686.41;;;9.92;40.91
31088;BME280;17745;55.914;37.554;2023-04-22T01:21:52;98682.13;;;9.86;41.14
31088;BME280;17745;55.914;37.554;2023-04-22T01:24:26;98671.31;;;9.87;41.00
31088;BME280;17745;55.914;37.554;2023-04-22T01:26:55;98684.00;;;9.85;41.08
31088;BME280;17745;55.914;37.554;2023-04-22T01:29:26;98671.31;;;9.82;41.06
31088;BME280;17745;55.914;37.554;2023-04-22T01:31:56;98675.78;;;9.82;41.20
31088;BME280;17745;55.914;37.554;2023-04-22T01:34:31;98673.44;;;9.80;41.28
31088;BME280;17745;55.914;37.554;2023-04-22T01:37:00;98676.84;;;9.81;41.14
31088;BME280;17745;55.914;37.554;2023-04-22T01:39:37;98670.22;;;9.78;41.30
31088;BME280;17745;55.914;37.554;2023-04-22T01:42:07;98667.31;;;9.75;41.19
31088;BME280;17745;55.914;37.554;2023-04-22T01:44:35;98658.56;;;9.69;41.32
31088;BME280;17745;55.914;37.554;2023-04-22T01:47:05;98676.03;;;9.75;41.31
31088;BME280;17745;55.914;37.554;2023-04-22T01:49:35;98677.38;;;9.72;41.41
31088;BME280;17745;55.914;37.554;2023-04-22T01:52:03;98675.50;;;9.68;41.44
31088;BME280;17745;55.914;37.554;2023-04-22T01:54:34;98673.38;;;9.70;41.58
31088;BME280;17745;55.914;37.554;2023-04-22T01:57:08;98672.84;;;9.63;41.58
31088;BME280;17745;55.914;37.554;2023-04-22T01:59:39;98675.50;;;9.68;41.77
31088;BME280;17745;55.914;37.554;2023-04-22T02:02:12;98683.66;;;9.66;41.80
31088;BME280;17745;55.914;37.554;2023-04-22T02:04:42;98675.19;;;9.64;41.93
31088;BME280;17745;55.914;37.554;2023-04-22T02:07:12;98680.50;;;9.64;41.90
31088;BME280;17745;55.914;37.554;2023-04-22T02:09:45;98678.91;;;9.63;41.97
31088;BME280;17745;55.914;37.554;2023-04-22T02:12:24;98682.06;;;9.65;42.05
31088;BME280;17745;55.914;37.554;2023-04-22T02:14:57;98680.50;;;9.64;42.14
31088;BME280;17745;55.914;37.554;2023-04-22T02:17:34;98676.53;;;9.67;42.04
31088;BME280;17745;55.914;37.554;2023-04-22T02:20:09;98678.12;;;9.68;42.08
31088;BME280;17745;55.914;37.554;2023-04-22T02:22:41;98678.91;;;9.68;42.19
31088;BME280;17745;55.914;37.554;2023-04-22T02:25:12;98678.41;;;9.71;42.12
31088;BME280;17745;55.914;37.554;2023-04-22T02:27:42;98677.38;;;9.72;42.21
31088;BME280;17745;55.914;37.554;2023-04-22T02:30:11;98671.56;;;9.76;42.14
31088;BME280;17745;55.914;37.554;2023-04-22T02:32:39;98671.81;;;9.74;42.31
31088;BME280;17745;55.914;37.554;2023-04-22T02:35:12;98681.06;;;9.77;42.34
31088;BME280;17745;55.914;37.554;2023-04-22T02:37:49;98678.97;;;9.84;42.18
31088;BME280;17745;55.914;37.554;2023-04-22T02:40:24;98678.19;;;9.94;42.06
31088;BME280;17745;55.914;37.554;2023-04-22T02:42:56;98680.06;;;9.98;42.06
31088;BME280;17745;55.914;37.554;2023-04-22T02:45:24;98684.06;;;10.01;41.99
31088;BME280;17745;55.914;37.554;2023-04-22T02:47:56;98677.44;;;10.04;42.00
31088;BME280;17745;55.914;37.554;2023-04-22T02:50:25;98684.84;;;10.07;41.94
31088;BME280;17745;55.914;37.554;2023-04-22T02:52:55;98680.06;;;10.09;41.89
31088;BME280;17745;55.914;37.554;2023-04-22T02:55:25;98683.28;;;10.11;41.84
31088;BME280;17745;55.914;37.554;2023-04-22T02:57:55;98684.34;;;10.15;41.83
31088;BME280;17745;55.914;37.554;2023-04-22T03:00:23;98688.03;;;10.19;41.76
31088;BME280;17745;55.914;37.554;2023-04-22T03:02:56;98685.16;;;10.26;41.72
31088;BME280;17745;55.914;37.554;2023-04-22T03:05:32;98679.56;;;10.27;41.67
31088;BME280;17745;55.914;37.554;2023-04-22T03:08:04;98691.25;;;10.37;41.56
31088;BME280;17745;55.914;37.554;2023-04-22T03:10:34;98689.44;;;10.42;41.50
31088;BME280;17745;55.914;37.554;2023-04-22T03:13:08;98690.72;;;10.50;41.45
31088;BME280;17745;55.914;37.554;2023-04-22T03:15:46;98685.19;;;10.57;41.37
31088;BME280;17745;55.914;37.554;2023-04-22T03:18:19;98688.63;;;10.63;41.32
31088;BME280;17745;55.914;37.554;2023-04-22T03:20:56;98698.69;;;10.66;41.26
31088;BME280;17745;55.914;37.554;2023-04-22T03:23:27;98694.19;;;10.71;41.22
31088;BME280;17745;55.914;37.554;2023-04-22T03:25:58;98697.13;;;10.75;41.13
31088;BME280;17745;55.914;37.554;2023-04-22T03:28:36;98694.97;;;10.82;41.04
31088;BME280;17745;55.914;37.554;2023-04-22T03:31:05;98694.97;;;10.87;40.91
31088;BME280;17745;55.914;37.554;2023-04-22T03:33:35;98682.78;;;10.86;40.85
31088;BME280;17745;55.914;37.554;2023-04-22T03:36:16;98689.66;;;10.98;40.72
31088;BME280;17745;55.914;37.554;2023-04-22T03:38:49;98696.28;;;11.06;40.69
31088;BME280;17745;55.914;37.554;2023-04-22T03:41:29;98694.69;;;11.10;40.67
31088;BME280;17745;55.914;37.554;2023-04-22T03:44:03;98708.72;;;11.15;40.62
31088;BME280;17745;55.914;37.554;2023-04-22T03:46:37;98702.59;;;11.20;40.57
31088;BME280;17745;55.914;37.554;2023-04-22T03:49:08;98717.41;;;11.32;40.49
31088;BME280;17745;55.914;37.554;2023-04-22T03:51:43;98721.63;;;11.43;40.41
31088;BME280;17745;55.914;37.554;2023-04-22T03:54:16;98712.31;;;11.51;40.24
31088;BME280;17745;55.914;37.554;2023-04-22T03:56:51;98716.53;;;11.52;39.93
31088;BME280;17745;55.914;37.554;2023-04-22T03:59:21;98718.97;;;11.48;39.89
31088;BME280;17745;55.914;37.554;2023-04-22T04:01:53;98728.53;;;11.44;39.94
31088;BME280;17745;55.914;37.554;2023-04-22T04:04:26;98709.72;;;11.40;40.02
31088;BME280;17745;55.914;37.554;2023-04-22T04:07:00;98726.09;;;11.53;40.06
31088;BME280;17745;55.914;37.554;2023-04-22T04:09:38;98720.50;;;11.59;39.88
31088;BME280;17745;55.914;37.554;2023-04-22T04:12:32;98722.91;;;11.51;39.80
31088;BME280;17745;55.914;37.554;2023-04-22T04:15:01;98729.81;;;11.57;39.89
31088;BME280;17745;55.914;37.554;2023-04-22T04:17:33;98727.91;;;11.68;39.85
31088;BME280;17745;55.914;37.554;2023-04-22T04:20:04;98728.16;;;11.77;39.73
31088;BME280;17745;55.914;37.554;2023-04-22T04:22:32;98728.37;;;11.85;39.61
31088;BME280;17745;55.914;37.554;2023-04-22T04:25:01;98728.31;;;11.96;39.48
31088;BME280;17745;55.914;37.554;2023-04-22T04:27:36;98728.06;;;12.03;39.34
31088;BME280;17745;55.914;37.554;2023-04-22T04:30:08;98734.13;;;12.08;39.30
31088;BME280;17745;55.914;37.554;2023-04-22T04:32:38;98728.53;;;12.15;39.28
31088;BME280;17745;55.914;37.554;2023-04-22T04:35:08;98736.97;;;12.22;39.17
31088;BME280;17745;55.914;37.554;2023-04-22T04:37:41;98735.84;;;12.28;39.04
31088;BME280;17745;55.914;37.554;2023-04-22T04:40:11;98723.88;;;12.36;38.88
31088;BME280;17745;55.914;37.554;2023-04-22T04:43:02;98732.56;;;12.47;38.72
31088;BME280;17745;55.914;37.554;2023-04-22T04:45:58;98722.94;;;12.56;38.59
31088;BME280;17745;55.914;37.554;2023-04-22T04:48:37;98723.16;;;12.65;38.46
31088;BME280;17745;55.914;37.554;2023-04-22T04:51:18;98725.75;;;12.70;38.24
31088;BME280;17745;55.914;37.554;2023-04-22T04:54:04;98720.84;;;12.83;38.18
31088;BME280;17745;55.914;37.554;2023-04-22T04:56:55;98721.28;;;12.95;37.95
31088;BME280;17745;55.914;37.554;2023-04-22T04:59:56;98724.06;;;13.09;37.95
31088;BME280;17745;55.914;37.554;2023-04-22T05:02:46;98726.84;;;13.23;37.61
31088;BME280;17745;55.914;37.554;2023-04-22T05:05:29;98728.13;;;13.31;37.47
31088;BME280;17745;55.914;37.554;2023-04-22T05:07:59;98728.56;;;13.43;37.48
31088;BME280;17745;55.914;37.554;2023-04-22T05:10:33;98725.56;;;13.50;37.10
31088;BME280;17745;55.914;37.554;2023-04-22T05:13:03;98727.84;;;13.57;37.01
31088;BME280;17745;55.914;37.554;2023-04-22T05:16:01;98730.47;;;13.62;36.86
31088;BME280;17745;55.914;37.554;2023-04-22T05:18:46;98731.06;;;13.78;36.77
31088;BME280;17745;55.914;37.554;2023-04-22T05:21:14;98733.56;;;13.94;36.59
31088;BME280;17745;55.914;37.554;2023-04-22T05:23:44;98729.66;;;14.05;36.48
31088;BME280;17745;55.914;37.554;2023-04-22T05:26:15;98741.47;;;14.18;36.50
31088;BME280;17745;55.914;37.554;2023-04-22T05:28:45;98735.34;;;14.37;36.23
31088;BME280;17745;55.914;37.554;2023-04-22T05:31:16;98733.31;;;14.48;36.10
31088;BME280;17745;55.914;37.554;2023-04-22T05:33:49;98732.50;;;14.66;35.95
31088;BME280;17745;55.914;37.554;2023-04-22T05:36:21;98735.09;;;14.91;35.46
31088;BME280;17745;55.914;37.554;2023-04-22T05:38:51;98734.94;;;15.01;35.56
31088;BME280;17745;55.914;37.554;2023-04-22T05:41:21;98733.66;;;15.12;35.30
31088;BME280;17745;55.914;37.554;2023-04-22T05:44:03;98735.44;;;15.31;35.27
31088;BME280;17745;55.914;37.554;2023-04-22T05:47:03;98737.53;;;15.48;35.01
31088;BME280;17745;55.914;37.554;2023-04-22T05:49:44;98737.44;;;15.53;34.43
31088;BME280;17745;55.914;37.554;2023-04-22T05:52:13;98741.19;;;15.66;34.51
31088;BME280;17745;55.914;37.554;2023-04-22T05:54:46;98741.09;;;15.71;34.17
31088;BME280;17745;55.914;37.554;2023-04-22T05:57:43;98734.56;;;15.64;33.55
31088;BME280;17745;55.914;37.554;2023-04-22T06:01:01;98731.78;;;15.55;33.26
31088;BME280;17745;55.914;37.554;2023-04-22T06:04:13;98734.06;;;15.62;33.54
31088;BME280;17745;55.914;37.554;2023-04-22T06:06:45;98745.91;;;15.83;33.40
31088;BME280;17745;55.914;37.554;2023-04-22T06:09:42;98752.19;;;15.93;33.35
31088;BME280;17745;55.914;37.554;2023-04-22T06:12:15;98748.69;;;16.06;33.12
31088;BME280;17745;55.914;37.554;2023-04-22T06:18:55;98740.91;;;16.33;32.69
31088;BME280;17745;55.914;37.554;2023-04-22T06:22:32;98737.88;;;16.48;32.40
31088;BME280;17745;55.914;37.554;2023-04-22T06:33:06;98738.34;;;16.73;31.52
31088;BME280;17745;55.914;37.554;2023-04-22T06:36:47;98730.75;;;16.66;31.55
31088;BME280;17745;55.914;37.554;2023-04-22T06:39:50;98724.03;;;16.69;31.33
31088;BME280;17745;55.914;37.554;2023-04-22T06:43:15;98728.34;;;16.79;31.08
31088;BME280;17745;55.914;37.554;2023-04-22T06:46:19;98722.28;;;16.96;30.99
31088;BME280;17745;55.914;37.554;2023-04-22T06:49:10;98728.41;;;17.19;30.67
31088;BME280;17745;55.914;37.554;2023-04-22T06:52:02;98715.75;;;17.42;30.59
31088;BME280;17745;55.914;37.554;2023-04-22T06:54:55;98718.44;;;17.51;29.58
31088;BME280;17745;55.914;37.554;2023-04-22T06:57:35;98717.00;;;17.36;29.10
31088;BME280;17745;55.914;37.554;2023-04-22T07:00:13;98714.03;;;17.38;29.25
31088;BME280;17745;55.914;37.554;2023-04-22T07:03:03;98712.03;;;17.61;29.44
31088;BME280;17745;55.914;37.554;2023-04-22T07:05:47;98720.28;;;17.91;29.22
31088;BME280;17745;55.914;37.554;2023-04-22T07:08:21;98714.97;;;18.09;28.78
31088;BME280;17745;55.914;37.554;2023-04-22T07:11:07;98720.47;;;18.21;28.96
31088;BME280;17745;55.914;37.554;2023-04-22T07:13:49;98725.69;;;18.18;27.89
31088;BME280;17745;55.914;37.554;2023-04-22T07:16:33;98717.78;;;18.12;27.96
31088;BME280;17745;55.914;37.554;2023-04-22T07:19:06;98717.62;;;18.35;28.17
31088;BME280;17745;55.914;37.554;2023-04-22T07:22:00;98727.41;;;18.49;28.04
31088;BME280;17745;55.914;37.554;2023-04-22T07:24:55;98713.06;;;18.62;27.63
31088;BME280;17745;55.914;37.554;2023-04-22T07:27:54;98719.72;;;18.29;27.38
31088;BME280;17745;55.914;37.554;2023-04-22T07:30:41;98700.72;;;17.82;27.53
31088;BME280;17745;55.914;37.554;2023-04-22T07:33:35;98713.75;;;17.17;27.74
31088;BME280;17745;55.914;37.554;2023-04-22T07:36:05;98716.59;;;17.11;28.08
31088;BME280;17745;55.914;37.554;2023-04-22T07:38:45;98723.16;;;17.37;28.11
31088;BME280;17745;55.914;37.554;2023-04-22T07:41:21;98717.69;;;17.51;27.81
31088;BME280;17745;55.914;37.554;2023-04-22T07:44:25;98711.31;;;17.29;27.67
31088;BME280;17745;55.914;37.554;2023-04-22T07:47:05;98719.25;;;17.11;28.08
31088;BME280;17745;55.914;37.554;2023-04-22T07:49:44;98726.00;;;16.86;28.46
31088;BME280;17745;55.914;37.554;2023-04-22T07:52:13;98719.41;;;16.61;28.85
31088;BME280;17745;55.914;37.554;2023-04-22T07:55:02;98729.38;;;16.46;29.16
31088;BME280;17745;55.914;37.554;2023-04-22T07:57:45;98730.16;;;16.47;29.21
31088;BME280;17745;55.914;37.554;2023-04-22T08:01:01;98726.31;;;16.62;29.43
31088;BME280;17745;55.914;37.554;2023-04-22T08:03:51;98733.88;;;17.05;29.21
31088;BME280;17745;55.914;37.554;2023-04-22T08:06:42;98726.22;;;17.62;28.93
31088;BME280;17745;55.914;37.554;2023-04-22T08:09:32;98719.53;;;18.35;28.38
31088;BME280;17745;55.914;37.554;2023-04-22T08:12:19;98713.59;;;18.94;27.07
31088;BME280;17745;55.914;37.554;2023-04-22T08:14:57;98712.34;;;19.09;26.15
31088;BME280;17745;55.914;37.554;2023-04-22T08:28:04;98714.69;;;19.50;25.21
31088;BME280;17745;55.914;37.554;2023-04-22T08:31:15;98718.63;;;19.13;25.31
31088;BME280;17745;55.914;37.554;2023-04-22T08:34:19;98708.78;;;18.79;25.50
31088;BME280;17745;55.914;37.554;2023-04-22T08:37:05;98715.03;;;18.92;25.65
31088;BME280;17745;55.914;37.554;2023-04-22T08:40:19;98712.25;;;18.62;25.45
31088;BME280;17745;55.914;37.554;2023-04-22T08:43:46;98710.56;;;18.48;25.33
31088;BME280;17745;55.914;37.554;2023-04-22T08:46:49;98714.66;;;18.37;25.33
31088;BME280;17745;55.914;37.554;2023-04-22T08:49:37;98715.13;;;18.12;25.38
31088;BME280;17745;55.914;37.554;2023-04-22T08:52:36;98714.97;;;18.09;25.66
31088;BME280;17745;55.914;37.554;2023-04-22T08:55:55;98680.38;;;17.63;26.04
31088;BME280;17745;55.914;37.554;2023-04-22T09:02:44;98717.75;;;17.95;26.14
31088;BME280;17745;55.914;37.554;2023-04-22T09:05:38;98716.78;;;17.82;26.42
31088;BME280;17745;55.914;37.554;2023-04-22T09:08:34;98716.00;;;17.81;26.45
31088;BME280;17745;55.914;37.554;2023-04-22T09:11:34;98714.69;;;17.61;26.61
31088;BME280;17745;55.914;37.554;2023-04-22T09:14:30;98720.87;;;17.70;26.64
31088;BME280;17745;55.914;37.554;2023-04-22T09:17:07;98710.50;;;17.95;26.35
31088;BME280;17745;55.914;37.554;2023-04-22T09:23:57;98700.63;;;18.22;25.86
31088;BME280;17745;55.914;37.554;2023-04-22T09:27:23;98689.78;;;18.93;24.68
31088;BME280;17745;55.914;37.554;2023-04-22T09:30:35;98689.78;;;18.93;24.68
31088;BME280;17745;55.914;37.554;2023-04-22T09:34:11;98708.62;;;18.66;24.80
31088;BME280;17745;55.914;37.554;2023-04-22T09:36:53;98690.31;;;18.68;24.44
31088;BME280;17745;55.914;37.554;2023-04-22T09:39:54;98701.25;;;18.37;24.31
31088;BME280;17745;55.914;37.554;2023-04-22T09:46:41;98693.19;;;18.63;24.49
31088;BME280;17745;55.914;37.554;2023-04-22T09:49:48;98695.03;;;19.28;23.87
31088;BME280;17745;55.914;37.554;2023-04-22T09:53:04;98690.37;;;19.46;23.42
31088;BME280;17745;55.914;37.554;2023-04-22T09:56:04;98688.19;;;19.69;23.45
31088;BME280;17745;55.914;37.554;2023-04-22T09:59:01;98700.19;;;19.42;23.37
31088;BME280;17745;55.914;37.554;2023-04-22T10:02:03;98693.25;;;18.93;23.54
31088;BME280;17745;55.914;37.554;2023-04-22T10:04:47;98684.50;;;18.57;23.93
31088;BME280;17745;55.914;37.554;2023-04-22T10:07:28;98694.03;;;18.11;24.28
31088;BME280;17745;55.914;37.554;2023-04-22T10:10:32;98683.69;;;17.60;24.47
31088;BME280;17745;55.914;37.554;2023-04-22T10:13:28;98697.41;;;17.58;24.57
31088;BME280;17745;55.914;37.554;2023-04-22T10:16:18;98691.56;;;17.74;24.51
31088;BME280;17745;55.914;37.554;2023-04-22T10:19:11;98690.50;;;17.84;24.59
31088;BME280;17745;55.914;37.554;2023-04-22T10:22:07;98691.16;;;18.07;24.41
31088;BME280;17745;55.914;37.554;2023-04-22T10:25:05;98686.44;;;18.57;24.08
31088;BME280;17745;55.914;37.554;2023-04-22T10:28:07;98680.00;;;19.06;23.54
31088;BME280;17745;55.914;37.554;2023-04-22T10:31:13;98692.47;;;19.40;23.08
31088;BME280;17745;55.914;37.554;2023-04-22T10:34:43;98693.75;;;19.64;22.56
31088;BME280;17745;55.914;37.554;2023-04-22T10:37:30;98690.00;;;19.56;22.19
31088;BME280;17745;55.914;37.554;2023-04-22T10:41:14;98682.34;;;19.07;22.17
31088;BME280;17745;55.914;37.554;2023-04-22T10:44:14;98685.75;;;18.78;22.34
31088;BME280;17745;55.914;37.554;2023-04-22T10:47:08;98679.84;;;18.93;22.33
31088;BME280;17745;55.914;37.554;2023-04-22T10:50:16;98679.16;;;18.57;22.54
31088;BME280;17745;55.914;37.554;2023-04-22T10:53:00;98685.88;;;18.81;22.35
31088;BME280;17745;55.914;37.554;2023-04-22T10:56:18;98694.09;;;19.24;22.33
31088;BME280;17745;55.914;37.554;2023-04-22T10:59:21;98681.53;;;19.46;22.13
31088;BME280;17745;55.914;37.554;2023-04-22T11:02:50;98685.44;;;19.57;21.87
31088;BME280;17745;55.914;37.554;2023-04-22T11:09:26;98669.09;;;20.93;21.54
31088;BME280;17745;55.914;37.554;2023-04-22T11:12:49;98681.97;;;21.87;19.95
31088;BME280;17745;55.914;37.554;2023-04-22T11:15:54;98672.13;;;21.04;19.70
31088;BME280;17745;55.914;37.554;2023-04-22T11:19:03;98676.63;;;19.99;20.56
31088;BME280;17745;55.914;37.554;2023-04-22T11:22:35;98683.37;;;18.76;22.12
31088;BME280;17745;55.914;37.554;2023-04-22T11:40:01;98650.34;;;26.59;15.52
31088;BME280;17745;55.914;37.554;2023-04-22T11:44:35;98647.50;;;26.40;15.38
31088;BME280;17745;55.914;37.554;2023-04-22T11:49:37;98659.75;;;26.68;15.72
31088;BME280;17745;55.914;37.554;2023-04-22T12:03:33;98651.13;;;23.06;18.09
31088;BME280;17745;55.914;37.554;2023-04-22T12:06:42;98653.63;;;24.22;17.11
31088;BME280;17745;55.914;37.554;2023-04-22T12:10:12;98656.62;;;25.33;16.46
31088;BME280;17745;55.914;37.554;2023-04-22T12:16:46;98659.84;;;26.79;14.57
31088;BME280;17745;55.914;37.554;2023-04-22T12:20:46;98645.22;;;26.91;14.39
31088;BME280;17745;55.914;37.554;2023-04-22T12:52:33;98638.28;;;21.81;18.94
31088;BME280;17745;55.914;37.554;2023-04-22T12:55:48;98646.34;;;20.91;19.88
31088;BME280;17745;55.914;37.554;2023-04-22T12:58:37;98642.03;;;21.52;19.55
31088;BME280;17745;55.914;37.554;2023-04-22T13:01:29;98642.69;;;23.39;17.94
31088;BME280;17745;55.914;37.554;2023-04-22T13:04:04;98628.81;;;25.67;16.59
31088;BME280;17745;55.914;37.554;2023-04-22T13:06:33;98631.09;;;27.23;14.95
31088;BME280;17745;55.914;37.554;2023-04-22T13:09:03;98626.34;;;27.76;14.54
31088;BME280;17745;55.914;37.554;2023-04-22T13:11:35;98626.94;;;28.80;13.92
31088;BME280;17745;55.914;37.554;2023-04-22T13:14:10;98630.09;;;30.07;12.75
31088;BME280;17745;55.914;37.554;2023-04-22T13:16:55;98626.84;;;30.23;12.34
31088;BME280;17745;55.914;37.554;2023-04-22T13:19:29;98624.16;;;30.20;12.31
31088;BME280;17745;55.914;37.554;2023-04-22T13:22:01;98631.28;;;29.95;12.49
31088;BME280;17745;55.914;37.554;2023-04-22T13:24:35;98627.66;;;28.77;13.21
31088;BME280;17745;55.914;37.554;2023-04-22T13:27:07;98628.72;;;26.24;14.77
31088;BME280;17745;55.914;37.554;2023-04-22T13:29:52;98647.06;;;24.23;16.31
31088;BME280;17745;55.914;37.554;2023-04-22T13:32:31;98640.94;;;23.15;17.36
31088;BME280;17745;55.914;37.554;2023-04-22T13:35:03;98635.44;;;23.44;17.42
31088;BME280;17745;55.914;37.554;2023-04-22T13:44:46;98632.28;;;26.77;14.97
31088;BME280;17745;55.914;37.554;2023-04-22T13:48:14;98640.75;;;24.58;16.43
31088;BME280;17745;55.914;37.554;2023-04-22T13:51:26;98644.72;;;22.34;17.91
31088;BME280;17745;55.914;37.554;2023-04-22T13:54:37;98642.66;;;21.08;19.07
31088;BME280;17745;55.914;37.554;2023-04-22T13:58:07;98645.34;;;20.95;19.52
31088;BME280;17745;55.914;37.554;2023-04-22T14:05:32;98641.50;;;22.56;18.46
31088;BME280;17745;55.914;37.554;2023-04-22T14:08:56;98637.84;;;22.65;18.30
31088;BME280;17745;55.914;37.554;2023-04-22T14:11:58;98645.72;;;21.60;19.17
31088;BME280;17745;55.914;37.554;2023-04-22T14:15:02;98654.25;;;20.62;20.10
31088;BME280;17745;55.914;37.554;2023-04-22T14:18:19;98647.56;;;20.81;20.15
31088;BME280;17745;55.914;37.554;2023-04-22T14:24:47;98654.41;;;20.91;20.06
31088;BME280;17745;55.914;37.554;2023-04-22T14:27:43;98655.41;;;20.98;19.85
31088;BME280;17745;55.914;37.554;2023-04-22T14:30:54;98642.50;;;22.07;19.01
31088;BME280;17745;55.914;37.554;2023-04-22T14:33:52;98649.09;;;23.51;17.83
31088;BME280;17745;55.914;37.554;2023-04-22T14:36:43;98644.09;;;24.51;16.88
31088;BME280;17745;55.914;37.554;2023-04-22T14:39:39;98654.44;;;25.16;16.39
31088;BME280;17745;55.914;37.554;2023-04-22T14:42:13;98652.16;;;26.06;15.90
31088;BME280;17745;55.914;37.554;2023-04-22T14:44:44;98649.72;;;26.76;15.36
31088;BME280;17745;55.914;37.554;2023-04-22T14:47:46;98651.16;;;27.04;15.19
31088;BME280;17745;55.914;37.554;2023-04-22T14:50:28;98654.16;;;27.51;14.56
31088;BME280;17745;55.914;37.554;2023-04-22T14:53:12;98650.75;;;27.06;14.61
31088;BME280;17745;55.914;37.554;2023-04-22T14:55:45;98655.53;;;26.30;14.80
31088;BME280;17745;55.914;37.554;2023-04-22T14:58:16;98658.97;;;25.92;15.31
31088;BME280;17745;55.914;37.554;2023-04-22T15:01:01;98666.00;;;25.97;15.24
31088;BME280;17745;55.914;37.554;2023-04-22T15:03:52;98662.53;;;26.00;15.42
31088;BME280;17745;55.914;37.554;2023-04-22T15:06:22;98654.56;;;26.15;15.42
31088;BME280;17745;55.914;37.554;2023-04-22T15:09:07;98664.28;;;26.53;15.34
31088;BME280;17745;55.914;37.554;2023-04-22T15:12:00;98666.22;;;26.94;15.02
31088;BME280;17745;55.914;37.554;2023-04-22T15:14:40;98673.06;;;26.81;14.90
31088;BME280;17745;55.914;37.554;2023-04-22T15:17:23;98665.38;;;26.11;15.27
31088;BME280;17745;55.914;37.554;2023-04-22T15:21:05;98671.31;;;25.32;15.71
31088;BME280;17745;55.914;37.554;2023-04-22T15:23:17;98676.09;;;24.69;16.28
31088;BME280;17745;55.914;37.554;2023-04-22T15:26:26;98688.63;;;24.77;16.37
31088;BME280;17745;55.914;37.554;2023-04-22T15:29:23;98676.25;;;25.00;16.36
31088;BME280;17745;55.914;37.554;2023-04-22T15:32:16;98679.06;;;25.07;16.35
31088;BME280;17745;55.914;37.554;2023-04-22T15:39:01;98681.84;;;24.44;16.58
31088;BME280;17745;55.914;37.554;2023-04-22T15:42:29;98686.03;;;23.82;16.95
31088;BME280;17745;55.914;37.554;2023-04-22T15:48:56;98687.81;;;23.07;17.65
31088;BME280;17745;55.914;37.554;2023-04-22T15:52:54;98687.38;;;23.21;17.74
31088;BME280;17745;55.914;37.554;2023-04-22T16:00:19;98670.84;;;22.90;17.92
31088;BME280;17745;55.914;37.554;2023-04-22T16:03:36;98676.44;;;22.24;18.47
31088;BME280;17745;55.914;37.554;2023-04-22T16:06:28;98688.22;;;22.04;18.66
31088;BME280;17745;55.914;37.554;2023-04-22T16:09:24;98681.41;;;21.81;18.84
31088;BME280;17745;55.914;37.554;2023-04-22T16:12:27;98673.59;;;21.39;19.13
31088;BME280;17745;55.914;37.554;2023-04-22T16:15:33;98683.91;;;20.53;19.84
31088;BME280;17745;55.914;37.554;2023-04-22T16:18:35;98677.31;;;19.87;20.41
31088;BME280;17745;55.914;37.554;2023-04-22T16:21:25;98682.06;;;19.39;20.92
31088;BME280;17745;55.914;37.554;2023-04-22T16:24:12;98688.50;;;19.08;21.25
31088;BME280;17745;55.914;37.554;2023-04-22T16:26:46;98685.41;;;18.79;21.47
31088;BME280;17745;55.914;37.554;2023-04-22T16:29:26;98684.97;;;18.60;21.70
31088;BME280;17745;55.914;37.554;2023-04-22T16:32:01;98681.22;;;18.43;22.12
31088;BME280;17745;55.914;37.554;2023-04-22T16:34:33;98680.00;;;18.23;22.26